sensor_id;sensor_type;location;lat;lon;timestamp;pressure;altitude;pressure_sealevel;temperature;humidity
48874;BME280;66155;46.204;5.220;2023-11-19T00:00:45;99270.78;;;10.06;75.48
48874;BME280;66155;46.204;5.220;2023-11-19T00:05:45;99262.97;;;10.06;73.41
48874;BME280;66155;46.204;5.220;2023-11-19T00:10:46;99258.66;;;10.12;78.57
48874;BME280;66155;46.204;5.220;2023-11-19T00:15:46;99255.06;;;10.13;78.20
48874;BME280;66155;46.204;5.220;2023-11-19T00:20:47;99247.59;;;10.17;80.18
48874;BME280;66155;46.204;5.220;2023-11-19T00:25:48;99242.16;;;10.18;81.00
48874;BME280;66155;46.204;5.220;2023-11-19T00:30:48;99241.25;;;10.13;80.89
48874;BME280;66155;46.204;5.220;2023-11-19T00:35:49;99243.97;;;10.06;77.39
48874;BME280;66155;46.204;5.220;2023-11-19T00:40:49;99239.78;;;10.05;76.99
48874;BME280;66155;46.204;5.220;2023-11-19T00:45:50;99234.56;;;10.05;77.58
48874;BME280;66155;46.204;5.220;2023-11-19T00:50:51;99232.53;;;10.07;78.32
48874;BME280;66155;46.204;5.220;2023-11-19T00:55:51;99231.84;;;10.12;81.37
48874;BME280;66155;46.204;5.220;2023-11-19T01:00:52;99226.19;;;10.15;80.51
48874;BME280;66155;46.204;5.220;2023-11-19T01:05:52;99222.53;;;10.16;80.88
48874;BME280;66155;46.204;5.220;2023-11-19T01:10:52;99222.31;;;10.17;82.05
48874;BME280;66155;46.204;5.220;2023-11-19T01:15:53;99215.88;;;10.20;82.26
48874;BME280;66155;46.204;5.220;2023-11-19T01:20:53;99207.25;;;10.19;82.77
48874;BME280;66155;46.204;5.220;2023-11-19T01:25:54;99208.06;;;10.20;83.15
48874;BME280;66155;46.204;5.220;2023-11-19T01:30:54;99209.19;;;10.12;81.49
48874;BME280;66155;46.204;5.220;2023-11-19T01:35:55;99221.88;;;10.08;80.31
48874;BME280;66155;46.204;5.220;2023-11-19T01:40:59;99221.56;;;10.05;79.84
48874;BME280;66155;46.204;5.220;2023-11-19T01:46:00;99222.81;;;10.02;80.63
48874;BME280;66155;46.204;5.220;2023-11-19T01:51:01;99221.78;;;10.03;81.33
48874;BME280;66155;46.204;5.220;2023-11-19T01:56:03;99223.59;;;10.03;81.01
48874;BME280;66155;46.204;5.220;2023-11-19T02:01:08;99219.41;;;10.02;80.30
48874;BME280;66155;46.204;5.220;2023-11-19T02:06:09;99211.69;;;10.07;79.69
48874;BME280;66155;46.204;5.220;2023-11-19T02:11:10;99214.41;;;10.12;78.52
48874;BME280;66155;46.204;5.220;2023-11-19T02:16:12;99200.72;;;10.17;77.03
48874;BME280;66155;46.204;5.220;2023-11-19T02:21:12;99195.38;;;10.23;76.58
48874;BME280;66155;46.204;5.220;2023-11-19T02:31:23;99189.69;;;10.38;79.22
48874;BME280;66155;46.204;5.220;2023-11-19T02:36:23;99186.13;;;10.44;80.24
48874;BME280;66155;46.204;5.220;2023-11-19T02:41:23;99183.63;;;10.50;79.44
48874;BME280;66155;46.204;5.220;2023-11-19T02:46:24;99169.59;;;10.51;80.77
48874;BME280;66155;46.204;5.220;2023-11-19T02:51:25;99166.19;;;10.50;79.75
48874;BME280;66155;46.204;5.220;2023-11-19T02:56:25;99156.09;;;10.54;81.34
48874;BME280;66155;46.204;5.220;2023-11-19T03:01:26;99157.91;;;10.53;80.46
48874;BME280;66155;46.204;5.220;2023-11-19T03:06:30;99159.72;;;10.53;81.05
48874;BME280;66155;46.204;5.220;2023-11-19T03:11:30;99158.00;;;10.58;82.02
48874;BME280;66155;46.204;5.220;2023-11-19T03:16:31;99145.19;;;10.57;81.11
48874;BME280;66155;46.204;5.220;2023-11-19T03:21:31;99157.81;;;10.48;80.17
48874;BME280;66155;46.204;5.220;2023-11-19T03:26:32;99159.69;;;10.36;81.69
48874;BME280;66155;46.204;5.220;2023-11-19T03:31:34;99152.44;;;10.26;83.45
48874;BME280;66155;46.204;5.220;2023-11-19T03:36:34;99151.00;;;10.18;84.50
48874;BME280;66155;46.204;5.220;2023-11-19T03:41:34;99149.41;;;10.17;84.80
48874;BME280;66155;46.204;5.220;2023-11-19T03:46:35;99146.59;;;10.19;84.70
48874;BME280;66155;46.204;5.220;2023-11-19T03:51:36;99152.13;;;10.22;84.60
48874;BME280;66155;46.204;5.220;2023-11-19T03:56:36;99153.72;;;10.23;84.24
48874;BME280;66155;46.204;5.220;2023-11-19T04:01:37;99150.28;;;10.23;83.79
48874;BME280;66155;46.204;5.220;2023-11-19T04:06:37;99155.28;;;10.24;83.47
48874;BME280;66155;46.204;5.220;2023-11-19T04:11:38;99171.44;;;10.26;82.38
48874;BME280;66155;46.204;5.220;2023-11-19T04:16:40;99179.16;;;10.33;82.12
48874;BME280;66155;46.204;5.220;2023-11-19T04:21:41;99175.31;;;10.36;82.22
48874;BME280;66155;46.204;5.220;2023-11-19T04:26:45;99186.53;;;10.36;83.69
48874;BME280;66155;46.204;5.220;2023-11-19T04:31:45;99171.59;;;10.32;86.14
48874;BME280;66155;46.204;5.220;2023-11-19T04:36:46;99163.53;;;10.21;87.92
48874;BME280;66155;46.204;5.220;2023-11-19T04:41:49;99165.38;;;10.21;87.01
48874;BME280;66155;46.204;5.220;2023-11-19T04:46:50;99162.53;;;10.22;87.36
48874;BME280;66155;46.204;5.220;2023-11-19T04:51:50;99162.84;;;10.26;87.78
48874;BME280;66155;46.204;5.220;2023-11-19T04:56:51;99159.69;;;10.24;88.85
48874;BME280;66155;46.204;5.220;2023-11-19T05:01:51;99160.72;;;10.23;89.14
48874;BME280;66155;46.204;5.220;2023-11-19T05:06:52;99156.34;;;10.12;92.00
48874;BME280;66155;46.204;5.220;2023-11-19T05:11:52;99142.91;;;10.03;91.77
48874;BME280;66155;46.204;5.220;2023-11-19T05:16:53;99138.38;;;9.98;92.09
48874;BME280;66155;46.204;5.220;2023-11-19T05:21:54;99137.72;;;9.91;92.97
48874;BME280;66155;46.204;5.220;2023-11-19T05:26:54;99141.34;;;9.90;92.04
48874;BME280;66155;46.204;5.220;2023-11-19T05:31:55;99147.34;;;9.90;91.69
48874;BME280;66155;46.204;5.220;2023-11-19T05:36:55;99133.66;;;9.95;91.07
48874;BME280;66155;46.204;5.220;2023-11-19T05:41:56;99139.41;;;9.97;90.71
48874;BME280;66155;46.204;5.220;2023-11-19T05:46:56;99139.50;;;10.02;89.45
48874;BME280;66155;46.204;5.220;2023-11-19T05:51:56;99136.06;;;10.14;88.33
48874;BME280;66155;46.204;5.220;2023-11-19T05:56:57;99133.88;;;10.22;87.59
48874;BME280;66155;46.204;5.220;2023-11-19T06:01:58;99126.72;;;10.30;87.42
48874;BME280;66155;46.204;5.220;2023-11-19T06:06:58;99131.94;;;10.30;88.26
48874;BME280;66155;46.204;5.220;2023-11-19T06:11:58;99121.75;;;10.28;88.84
48874;BME280;66155;46.204;5.220;2023-11-19T06:17:01;99135.47;;;10.23;90.01
48874;BME280;66155;46.204;5.220;2023-11-19T06:22:05;99135.47;;;10.23;90.59
48874;BME280;66155;46.204;5.220;2023-11-19T06:27:05;99131.28;;;10.22;91.53
48874;BME280;66155;46.204;5.220;2023-11-19T06:32:05;99125.06;;;10.23;91.73
48874;BME280;66155;46.204;5.220;2023-11-19T06:37:06;99116.22;;;10.24;91.05
48874;BME280;66155;46.204;5.220;2023-11-19T06:42:09;99122.28;;;10.30;89.70
48874;BME280;66155;46.204;5.220;2023-11-19T06:47:09;99117.22;;;10.35;88.72
48874;BME280;66155;46.204;5.220;2023-11-19T06:52:09;99127.63;;;10.35;89.96
48874;BME280;66155;46.204;5.220;2023-11-19T06:57:10;99132.38;;;10.38;89.00
48874;BME280;66155;46.204;5.220;2023-11-19T07:02:10;99140.97;;;10.39;90.60
48874;BME280;66155;46.204;5.220;2023-11-19T07:07:11;99140.97;;;10.39;91.05
48874;BME280;66155;46.204;5.220;2023-11-19T07:12:11;99138.59;;;10.37;91.10
48874;BME280;66155;46.204;5.220;2023-11-19T07:17:13;99128.03;;;10.44;89.74
48874;BME280;66155;46.204;5.220;2023-11-19T07:22:13;99120.00;;;10.45;90.57
48874;BME280;66155;46.204;5.220;2023-11-19T07:27:15;99120.22;;;10.44;91.20
48874;BME280;66155;46.204;5.220;2023-11-19T07:32:15;99136.63;;;10.44;91.94
48874;BME280;66155;46.204;5.220;2023-11-19T07:37:16;99133.19;;;10.56;91.83
48874;BME280;66155;46.204;5.220;2023-11-19T07:42:17;99128.50;;;10.70;89.74
48874;BME280;66155;46.204;5.220;2023-11-19T07:47:17;99156.53;;;10.79;89.51
48874;BME280;66155;46.204;5.220;2023-11-19T07:52:17;99150.38;;;10.86;90.24
48874;BME280;66155;46.204;5.220;2023-11-19T07:57:18;99157.16;;;10.87;90.13
48874;BME280;66155;46.204;5.220;2023-11-19T08:02:18;99167.66;;;10.92;89.88
48874;BME280;66155;46.204;5.220;2023-11-19T08:07:19;99159.63;;;10.93;90.92
48874;BME280;66155;46.204;5.220;2023-11-19T08:12:19;99147.59;;;10.92;90.94
48874;BME280;66155;46.204;5.220;2023-11-19T08:17:19;99153.31;;;10.89;91.17
48874;BME280;66155;46.204;5.220;2023-11-19T08:22:20;99165.84;;;10.92;91.43
48874;BME280;66155;46.204;5.220;2023-11-19T08:27:20;99167.75;;;10.97;91.00
48874;BME280;66155;46.204;5.220;2023-11-19T08:32:27;99173.03;;;11.02;91.29
48874;BME280;66155;46.204;5.220;2023-11-19T08:37:27;99172.31;;;11.07;90.63
48874;BME280;66155;46.204;5.220;2023-11-19T08:42:28;99183.88;;;11.11;89.71
48874;BME280;66155;46.204;5.220;2023-11-19T08:47:28;99186.34;;;11.17;89.39
48874;BME280;66155;46.204;5.220;2023-11-19T08:52:29;99187.97;;;11.23;89.04
48874;BME280;66155;46.204;5.220;2023-11-19T08:57:30;99195.34;;;11.27;89.27
48874;BME280;66155;46.204;5.220;2023-11-19T09:02:30;99189.88;;;11.28;89.46
48874;BME280;66155;46.204;5.220;2023-11-19T09:07:32;99190.00;;;11.38;89.54
48874;BME280;66155;46.204;5.220;2023-11-19T09:12:33;99190.94;;;11.49;88.90
48874;BME280;66155;46.204;5.220;2023-11-19T09:17:33;99199.97;;;11.58;89.76
48874;BME280;66155;46.204;5.220;2023-11-19T09:22:33;99196.63;;;11.63;89.78
48874;BME280;66155;46.204;5.220;2023-11-19T09:27:34;99191.78;;;11.72;89.66
48874;BME280;66155;46.204;5.220;2023-11-19T09:32:34;99191.53;;;11.73;92.01
48874;BME280;66155;46.204;5.220;2023-11-19T09:37:34;99186.72;;;11.65;93.04
48874;BME280;66155;46.204;5.220;2023-11-19T09:42:44;99206.28;;;11.63;95.19
48874;BME280;66155;46.204;5.220;2023-11-19T09:47:51;99205.50;;;11.62;94.52
48874;BME280;66155;46.204;5.220;2023-11-19T09:52:52;99205.72;;;11.60;97.62
48874;BME280;66155;46.204;5.220;2023-11-19T09:57:53;99213.97;;;11.52;99.63
48874;BME280;66155;46.204;5.220;2023-11-19T10:02:54;99214.63;;;11.43;99.44
48874;BME280;66155;46.204;5.220;2023-11-19T10:07:57;99201.97;;;11.34;100.00
48874;BME280;66155;46.204;5.220;2023-11-19T10:12:58;99203.25;;;11.32;100.00
48874;BME280;66155;46.204;5.220;2023-11-19T10:18:00;99197.53;;;11.35;100.00
48874;BME280;66155;46.204;5.220;2023-11-19T10:23:01;99195.47;;;11.37;100.00
48874;BME280;66155;46.204;5.220;2023-11-19T10:28:01;99201.66;;;11.31;100.00
48874;BME280;66155;46.204;5.220;2023-11-19T10:33:09;99207.41;;;11.33;100.00
48874;BME280;66155;46.204;5.220;2023-11-19T10:38:14;99202.81;;;11.40;100.00
48874;BME280;66155;46.204;5.220;2023-11-19T10:43:18;99196.47;;;11.53;100.00
48874;BME280;66155;46.204;5.220;2023-11-19T10:48:19;99194.31;;;11.67;100.00
48874;BME280;66155;46.204;5.220;2023-11-19T10:53:23;99199.69;;;11.77;100.00
48874;BME280;66155;46.204;5.220;2023-11-19T10:58:28;99196.16;;;11.88;100.00
48874;BME280;66155;46.204;5.220;2023-11-19T11:03:35;99187.53;;;12.05;100.00
48874;BME280;66155;46.204;5.220;2023-11-19T11:08:37;99187.75;;;12.25;100.00
48874;BME280;66155;46.204;5.220;2023-11-19T11:13:42;99173.81;;;12.42;100.00
48874;BME280;66155;46.204;5.220;2023-11-19T11:18:43;99182.88;;;12.61;100.00
48874;BME280;66155;46.204;5.220;2023-11-19T11:34:51;99150.31;;;13.06;100.00
48874;BME280;66155;46.204;5.220;2023-11-19T11:39:57;99153.00;;;13.17;100.00
48874;BME280;66155;46.204;5.220;2023-11-19T11:50:17;99145.59;;;13.41;100.00
48874;BME280;66155;46.204;5.220;2023-11-19T11:55:18;99138.03;;;13.49;100.00
48874;BME280;66155;46.204;5.220;2023-11-19T12:00:27;99139.91;;;13.54;100.00
48874;BME280;66155;46.204;5.220;2023-11-19T12:05:27;99134.72;;;13.64;100.00
48874;BME280;66155;46.204;5.220;2023-11-19T12:10:36;99130.03;;;13.72;100.00
48874;BME280;66155;46.204;5.220;2023-11-19T12:20:56;99121.22;;;13.98;100.00
48874;BME280;66155;46.204;5.220;2023-11-19T12:25:58;99119.69;;;14.07;100.00
48874;BME280;66155;46.204;5.220;2023-11-19T12:31:08;99094.28;;;14.18;100.00
48874;BME280;66155;46.204;5.220;2023-11-19T12:36:12;99089.31;;;14.27;100.00
48874;BME280;66155;46.204;5.220;2023-11-19T12:41:12;99103.72;;;14.30;100.00
48874;BME280;66155;46.204;5.220;2023-11-19T12:46:23;99106.06;;;14.26;100.00
48874;BME280;66155;46.204;5.220;2023-11-19T12:51:31;99106.59;;;14.23;100.00
48874;BME280;66155;46.204;5.220;2023-11-19T12:56:32;99100.84;;;14.31;100.00
48874;BME280;66155;46.204;5.220;2023-11-19T13:01:33;99107.41;;;14.39;100.00
48874;BME280;66155;46.204;5.220;2023-11-19T13:06:35;99098.75;;;14.43;100.00
48874;BME280;66155;46.204;5.220;2023-11-19T13:11:35;99101.13;;;14.50;100.00
48874;BME280;66155;46.204;5.220;2023-11-19T13:16:36;99098.25;;;14.57;100.00
48874;BME280;66155;46.204;5.220;2023-11-19T13:21:37;99090.66;;;14.66;100.00
48874;BME280;66155;46.204;5.220;2023-11-19T13:26:38;99088.53;;;14.78;100.00
48874;BME280;66155;46.204;5.220;2023-11-19T13:31:38;99089.88;;;14.80;100.00
48874;BME280;66155;46.204;5.220;2023-11-19T13:36:39;99091.16;;;14.78;100.00
48874;BME280;66155;46.204;5.220;2023-11-19T13:41:39;99078.88;;;14.78;100.00
48874;BME280;66155;46.204;5.220;2023-11-19T13:46:40;99085.94;;;14.78;100.00
48874;BME280;66155;46.204;5.220;2023-11-19T13:51:40;99086.19;;;14.81;100.00
48874;BME280;66155;46.204;5.220;2023-11-19T13:56:41;99092.25;;;14.77;100.00
48874;BME280;66155;46.204;5.220;2023-11-19T14:01:41;99095.63;;;14.72;100.00
48874;BME280;66155;46.204;5.220;2023-11-19T14:06:45;99088.84;;;14.66;100.00
48874;BME280;66155;46.204;5.220;2023-11-19T14:11:45;99087.50;;;14.63;100.00
48874;BME280;66155;46.204;5.220;2023-11-19T14:16:45;99079.63;;;14.63;100.00
48874;BME280;66155;46.204;5.220;2023-11-19T14:21:46;99079.13;;;14.67;100.00
48874;BME280;66155;46.204;5.220;2023-11-19T14:26:47;99070.22;;;14.73;100.00
48874;BME280;66155;46.204;5.220;2023-11-19T14:31:49;99067.03;;;14.76;100.00
48874;BME280;66155;46.204;5.220;2023-11-19T14:36:49;99069.41;;;14.72;99.93
48874;BME280;66155;46.204;5.220;2023-11-19T14:41:49;99063.13;;;14.73;100.00
48874;BME280;66155;46.204;5.220;2023-11-19T14:46:50;99064.44;;;14.71;100.00
48874;BME280;66155;46.204;5.220;2023-11-19T14:51:51;99063.91;;;14.69;100.00
48874;BME280;66155;46.204;5.220;2023-11-19T14:56:51;99062.88;;;14.70;100.00
48874;BME280;66155;46.204;5.220;2023-11-19T15:01:52;99067.59;;;14.73;100.00
48874;BME280;66155;46.204;5.220;2023-11-19T15:06:53;99068.63;;;14.77;100.00
48874;BME280;66155;46.204;5.220;2023-11-19T15:11:53;99057.31;;;14.81;100.00
48874;BME280;66155;46.204;5.220;2023-11-19T15:16:54;99059.69;;;14.88;100.00
48874;BME280;66155;46.204;5.220;2023-11-19T15:21:54;99055.25;;;14.83;100.00
48874;BME280;66155;46.204;5.220;2023-11-19T15:26:55;99065.75;;;14.78;100.00
48874;BME280;66155;46.204;5.220;2023-11-19T15:31:56;99069.66;;;14.76;100.00
48874;BME280;66155;46.204;5.220;2023-11-19T15:36:56;99081.75;;;14.82;100.00
48874;BME280;66155;46.204;5.220;2023-11-19T15:41:57;99077.53;;;14.81;100.00
48874;BME280;66155;46.204;5.220;2023-11-19T15:46:59;99080.97;;;14.66;100.00
48874;BME280;66155;46.204;5.220;2023-11-19T15:51:59;99080.16;;;14.55;100.00
48874;BME280;66155;46.204;5.220;2023-11-19T15:57:00;99090.63;;;14.45;100.00
48874;BME280;66155;46.204;5.220;2023-11-19T16:02:01;99084.59;;;14.29;100.00
48874;BME280;66155;46.204;5.220;2023-11-19T16:07:01;99092.16;;;14.15;100.00
48874;BME280;66155;46.204;5.220;2023-11-19T16:12:02;99087.44;;;14.02;100.00
48874;BME280;66155;46.204;5.220;2023-11-19T16:17:03;99084.25;;;13.90;100.00
48874;BME280;66155;46.204;5.220;2023-11-19T16:22:03;99094.72;;;13.79;100.00
48874;BME280;66155;46.204;5.220;2023-11-19T16:27:09;99094.69;;;13.74;100.00
48874;BME280;66155;46.204;5.220;2023-11-19T16:32:10;99082.63;;;13.68;100.00
48874;BME280;66155;46.204;5.220;2023-11-19T16:37:10;99088.88;;;13.62;100.00
48874;BME280;66155;46.204;5.220;2023-11-19T16:42:10;99096.19;;;13.55;100.00
48874;BME280;66155;46.204;5.220;2023-11-19T16:47:11;99095.34;;;13.44;100.00
48874;BME280;66155;46.204;5.220;2023-11-19T16:52:11;99092.72;;;13.39;100.00
48874;BME280;66155;46.204;5.220;2023-11-19T16:57:13;99100.00;;;13.31;100.00
48874;BME280;66155;46.204;5.220;2023-11-19T17:02:14;99112.50;;;13.24;100.00
48874;BME280;66155;46.204;5.220;2023-11-19T17:07:15;99126.56;;;13.13;100.00
48874;BME280;66155;46.204;5.220;2023-11-19T17:12:15;99125.72;;;13.07;100.00
48874;BME280;66155;46.204;5.220;2023-11-19T17:17:15;99139.56;;;13.03;100.00
48874;BME280;66155;46.204;5.220;2023-11-19T17:22:16;99131.94;;;12.96;100.00
48874;BME280;66155;46.204;5.220;2023-11-19T17:27:16;99149.16;;;12.92;100.00
48874;BME280;66155;46.204;5.220;2023-11-19T17:32:17;99153.53;;;12.81;100.00
48874;BME280;66155;46.204;5.220;2023-11-19T17:37:17;99138.03;;;12.74;100.00
48874;BME280;66155;46.204;5.220;2023-11-19T17:42:18;99140.84;;;12.68;100.00
48874;BME280;66155;46.204;5.220;2023-11-19T17:47:19;99132.44;;;12.61;100.00
48874;BME280;66155;46.204;5.220;2023-11-19T17:52:20;99143.59;;;12.51;100.00
48874;BME280;66155;46.204;5.220;2023-11-19T17:57:21;99145.09;;;12.47;100.00
48874;BME280;66155;46.204;5.220;2023-11-19T18:02:21;99152.34;;;12.40;100.00
48874;BME280;66155;46.204;5.220;2023-11-19T18:07:22;99152.88;;;12.36;100.00
48874;BME280;66155;46.204;5.220;2023-11-19T18:12:22;99145.53;;;12.33;100.00
48874;BME280;66155;46.204;5.220;2023-11-19T18:17:22;99151.72;;;12.27;100.00
48874;BME280;66155;46.204;5.220;2023-11-19T18:22:23;99155.31;;;12.21;100.00
48874;BME280;66155;46.204;5.220;2023-11-19T18:27:24;99153.97;;;12.18;100.00
48874;BME280;66155;46.204;5.220;2023-11-19T18:32:24;99159.69;;;12.15;100.00
48874;BME280;66155;46.204;5.220;2023-11-19T18:37:25;99154.41;;;12.10;100.00
48874;BME280;66155;46.204;5.220;2023-11-19T18:42:25;99165.06;;;12.04;100.00
48874;BME280;66155;46.204;5.220;2023-11-19T18:47:26;99157.16;;;11.98;100.00
48874;BME280;66155;46.204;5.220;2023-11-19T18:52:26;99158.69;;;11.94;100.00
48874;BME280;66155;46.204;5.220;2023-11-19T18:57:28;99161.19;;;11.89;100.00
48874;BME280;66155;46.204;5.220;2023-11-19T19:02:28;99153.84;;;11.86;100.00
48874;BME280;66155;46.204;5.220;2023-11-19T19:07:28;99144.69;;;11.84;100.00
48874;BME280;66155;46.204;5.220;2023-11-19T19:12:29;99135.50;;;11.81;100.00
48874;BME280;66155;46.204;5.220;2023-11-19T19:17:29;99146.94;;;11.75;100.00
48874;BME280;66155;46.204;5.220;2023-11-19T19:22:30;99145.84;;;11.71;100.00
48874;BME280;66155;46.204;5.220;2023-11-19T19:27:30;99149.41;;;11.65;100.00
48874;BME280;66155;46.204;5.220;2023-11-19T19:32:31;99149.09;;;11.61;100.00
48874;BME280;66155;46.204;5.220;2023-11-19T19:37:31;99158.53;;;11.62;100.00
48874;BME280;66155;46.204;5.220;2023-11-19T19:42:32;99166.72;;;11.71;100.00
48874;BME280;66155;46.204;5.220;2023-11-19T19:47:33;99161.50;;;11.71;100.00
48874;BME280;66155;46.204;5.220;2023-11-19T19:52:34;99154.44;;;11.71;100.00
48874;BME280;66155;46.204;5.220;2023-11-19T19:57:35;99150.09;;;11.77;100.00
48874;BME280;66155;46.204;5.220;2023-11-19T20:02:36;99157.31;;;11.70;100.00
48874;BME280;66155;46.204;5.220;2023-11-19T20:07:41;99172.19;;;11.69;100.00
48874;BME280;66155;46.204;5.220;2023-11-19T20:12:41;99160.91;;;11.64;100.00
48874;BME280;66155;46.204;5.220;2023-11-19T20:17:42;99170.75;;;11.61;100.00
48874;BME280;66155;46.204;5.220;2023-11-19T20:22:42;99177.56;;;11.63;100.00
48874;BME280;66155;46.204;5.220;2023-11-19T20:27:43;99177.50;;;11.57;100.00
48874;BME280;66155;46.204;5.220;2023-11-19T20:32:45;99170.81;;;11.45;100.00
48874;BME280;66155;46.204;5.220;2023-11-19T20:37:46;99191.22;;;11.31;100.00
48874;BME280;66155;46.204;5.220;2023-11-19T20:42:47;99189.09;;;11.11;100.00
48874;BME280;66155;46.204;5.220;2023-11-19T20:47:47;99206.41;;;11.00;100.00
48874;BME280;66155;46.204;5.220;2023-11-19T20:52:49;99197.94;;;11.10;100.00
48874;BME280;66155;46.204;5.220;2023-11-19T20:57:51;99210.81;;;11.16;100.00
48874;BME280;66155;46.204;5.220;2023-11-19T21:02:53;99223.88;;;11.16;100.00
48874;BME280;66155;46.204;5.220;2023-11-19T21:07:58;99203.53;;;11.18;100.00
48874;BME280;66155;46.204;5.220;2023-11-19T21:12:59;99204.31;;;11.19;100.00
48874;BME280;66155;46.204;5.220;2023-11-19T21:18:01;99207.19;;;11.17;100.00
48874;BME280;66155;46.204;5.220;2023-11-19T21:23:02;99219.84;;;11.09;100.00
48874;BME280;66155;46.204;5.220;2023-11-19T21:28:02;99213.25;;;11.06;100.00
48874;BME280;66155;46.204;5.220;2023-11-19T21:33:03;99204.41;;;11.07;100.00
48874;BME280;66155;46.204;5.220;2023-11-19T21:38:04;99205.66;;;11.04;100.00
48874;BME280;66155;46.204;5.220;2023-11-19T21:43:04;99214.22;;;11.00;100.00
48874;BME280;66155;46.204;5.220;2023-11-19T21:48:06;99218.31;;;10.96;100.00
48874;BME280;66155;46.204;5.220;2023-11-19T21:53:06;99221.63;;;10.91;100.00
48874;BME280;66155;46.204;5.220;2023-11-19T21:58:07;99213.16;;;10.84;100.00
48874;BME280;66155;46.204;5.220;2023-11-19T22:03:08;99221.13;;;10.77;100.00
48874;BME280;66155;46.204;5.220;2023-11-19T22:08:09;99210.06;;;10.70;100.00
48874;BME280;66155;46.204;5.220;2023-11-19T22:13:14;99204.44;;;10.61;100.00
48874;BME280;66155;46.204;5.220;2023-11-19T22:18:14;99203.56;;;10.56;100.00
48874;BME280;66155;46.204;5.220;2023-11-19T22:23:15;99199.84;;;10.52;100.00
48874;BME280;66155;46.204;5.220;2023-11-19T22:28:15;99201.31;;;10.48;100.00
48874;BME280;66155;46.204;5.220;2023-11-19T22:33:16;99207.22;;;10.43;100.00
48874;BME280;66155;46.204;5.220;2023-11-19T22:38:17;99201.69;;;10.39;100.00
48874;BME280;66155;46.204;5.220;2023-11-19T22:43:17;99202.94;;;10.37;100.00
48874;BME280;66155;46.204;5.220;2023-11-19T22:48:18;99196.94;;;10.36;100.00
48874;BME280;66155;46.204;5.220;2023-11-19T22:53:19;99188.56;;;10.34;100.00
48874;BME280;66155;46.204;5.220;2023-11-19T22:58:19;99186.97;;;10.33;100.00
48874;BME280;66155;46.204;5.220;2023-11-19T23:03:19;99192.97;;;10.34;100.00
48874;BME280;66155;46.204;5.220;2023-11-19T23:08:20;99188.69;;;10.27;100.00
48874;BME280;66155;46.204;5.220;2023-11-19T23:13:20;99186.28;;;10.26;100.00
48874;BME280;66155;46.204;5.220;2023-11-19T23:18:20;99174.06;;;10.26;100.00
48874;BME280;66155;46.204;5.220;2023-11-19T23:23:22;99185.84;;;10.29;100.00
48874;BME280;66155;46.204;5.220;2023-11-19T23:28:22;99184.81;;;10.30;100.00
48874;BME280;66155;46.204;5.220;2023-11-19T23:33:23;99175.00;;;10.32;100.00
48874;BME280;66155;46.204;5.220;2023-11-19T23:38:23;99174.19;;;10.32;100.00
48874;BME280;66155;46.204;5.220;2023-11-19T23:43:24;99172.00;;;10.28;100.00
48874;BME280;66155;46.204;5.220;2023-11-19T23:48:25;99173.50;;;10.24;100.00
48874;BME280;66155;46.204;5.220;2023-11-19T23:53:25;99173.97;;;10.21;100.00
48874;BME280;66155;46.204;5.220;2023-11-19T23:58:25;99178.94;;;10.23;100.00
